sensor_id;sensor_type;location;lat;lon;timestamp;temperature;humidity
9919;DHT22;4998;51.024;13.828;2022-11-02T00:00:43;13.10;98.30
9919;DHT22;4998;51.024;13.828;2022-11-02T00:03:10;13.20;98.30
9919;DHT22;4998;51.024;13.828;2022-11-02T00:05:38;13.10;98.30
9919;DHT22;4998;51.024;13.828;2022-11-02T00:08:05;13.10;98.30
9919;DHT22;4998;51.024;13.828;2022-11-02T00:10:32;13.10;98.30
9919;DHT22;4998;51.024;13.828;2022-11-02T00:12:59;13.10;98.30
9919;DHT22;4998;51.024;13.828;2022-11-02T00:15:28;13.10;98.30
9919;DHT22;4998;51.024;13.828;2022-11-02T00:18:00;13.10;98.40
9919;DHT22;4998;51.024;13.828;2022-11-02T00:20:30;13.00;98.40
9919;DHT22;4998;51.024;13.828;2022-11-02T00:23:00;13.00;98.50
9919;DHT22;4998;51.024;13.828;2022-11-02T00:25:28;13.00;98.60
9919;DHT22;4998;51.024;13.828;2022-11-02T00:27:55;13.00;98.60
9919;DHT22;4998;51.024;13.828;2022-11-02T00:30:22;13.00;98.60
9919;DHT22;4998;51.024;13.828;2022-11-02T00:32:49;13.00;98.60
9919;DHT22;4998;51.024;13.828;2022-11-02T00:35:16;13.00;98.60
9919;DHT22;4998;51.024;13.828;2022-11-02T00:37:43;13.00;98.60
9919;DHT22;4998;51.024;13.828;2022-11-02T00:40:12;12.90;98.60
9919;DHT22;4998;51.024;13.828;2022-11-02T00:42:39;12.90;98.60
9919;DHT22;4998;51.024;13.828;2022-11-02T00:45:07;12.90;98.60
9919;DHT22;4998;51.024;13.828;2022-11-02T00:47:34;12.90;98.70
9919;DHT22;4998;51.024;13.828;2022-11-02T00:50:01;12.90;98.60
9919;DHT22;4998;51.024;13.828;2022-11-02T00:52:28;12.90;98.60
9919;DHT22;4998;51.024;13.828;2022-11-02T00:54:56;12.90;98.60
9919;DHT22;4998;51.024;13.828;2022-11-02T00:57:24;12.90;98.60
9919;DHT22;4998;51.024;13.828;2022-11-02T00:59:51;12.90;98.70
9919;DHT22;4998;51.024;13.828;2022-11-02T01:02:18;12.90;98.60
9919;DHT22;4998;51.024;13.828;2022-11-02T01:04:45;12.90;98.70
9919;DHT22;4998;51.024;13.828;2022-11-02T01:07:11;12.80;98.60
9919;DHT22;4998;51.024;13.828;2022-11-02T01:09:38;12.80;98.60
9919;DHT22;4998;51.024;13.828;2022-11-02T01:12:05;12.80;98.70
9919;DHT22;4998;51.024;13.828;2022-11-02T01:14:34;12.80;98.70
9919;DHT22;4998;51.024;13.828;2022-11-02T01:17:01;12.80;98.70
9919;DHT22;4998;51.024;13.828;2022-11-02T01:19:29;12.80;98.60
9919;DHT22;4998;51.024;13.828;2022-11-02T01:21:56;12.70;98.70
9919;DHT22;4998;51.024;13.828;2022-11-02T01:24:23;12.70;98.70
9919;DHT22;4998;51.024;13.828;2022-11-02T01:26:50;12.80;98.80
9919;DHT22;4998;51.024;13.828;2022-11-02T01:29:17;12.70;98.80
9919;DHT22;4998;51.024;13.828;2022-11-02T01:31:46;12.70;98.80
9919;DHT22;4998;51.024;13.828;2022-11-02T01:34:13;12.70;98.90
9919;DHT22;4998;51.024;13.828;2022-11-02T01:36:40;12.70;98.90
9919;DHT22;4998;51.024;13.828;2022-11-02T01:39:09;12.60;98.80
9919;DHT22;4998;51.024;13.828;2022-11-02T01:41:36;12.60;98.90
9919;DHT22;4998;51.024;13.828;2022-11-02T01:44:04;12.60;98.80
9919;DHT22;4998;51.024;13.828;2022-11-02T01:46:36;12.60;98.80
9919;DHT22;4998;51.024;13.828;2022-11-02T01:49:09;12.60;98.90
9919;DHT22;4998;51.024;13.828;2022-11-02T01:51:41;12.60;98.90
9919;DHT22;4998;51.024;13.828;2022-11-02T01:54:11;12.60;98.90
9919;DHT22;4998;51.024;13.828;2022-11-02T01:56:40;12.60;98.80
9919;DHT22;4998;51.024;13.828;2022-11-02T01:59:11;12.50;98.80
9919;DHT22;4998;51.024;13.828;2022-11-02T02:01:39;12.50;98.70
9919;DHT22;4998;51.024;13.828;2022-11-02T02:04:07;12.50;98.60
9919;DHT22;4998;51.024;13.828;2022-11-02T02:06:36;12.50;98.70
9919;DHT22;4998;51.024;13.828;2022-11-02T02:09:05;12.40;98.60
9919;DHT22;4998;51.024;13.828;2022-11-02T02:11:34;12.40;98.70
9919;DHT22;4998;51.024;13.828;2022-11-02T02:14:04;12.40;98.70
9919;DHT22;4998;51.024;13.828;2022-11-02T02:16:50;12.30;98.80
9919;DHT22;4998;51.024;13.828;2022-11-02T02:19:31;12.30;99.00
9919;DHT22;4998;51.024;13.828;2022-11-02T02:22:12;12.30;99.00
9919;DHT22;4998;51.024;13.828;2022-11-02T02:24:49;12.30;99.10
9919;DHT22;4998;51.024;13.828;2022-11-02T02:27:20;12.30;99.10
9919;DHT22;4998;51.024;13.828;2022-11-02T02:30:00;12.30;99.10
9919;DHT22;4998;51.024;13.828;2022-11-02T02:32:35;12.20;99.00
9919;DHT22;4998;51.024;13.828;2022-11-02T02:35:14;12.30;99.10
9919;DHT22;4998;51.024;13.828;2022-11-02T02:37:47;12.30;99.10
9919;DHT22;4998;51.024;13.828;2022-11-02T02:40:19;12.20;98.90
9919;DHT22;4998;51.024;13.828;2022-11-02T02:42:52;12.20;99.10
9919;DHT22;4998;51.024;13.828;2022-11-02T02:45:24;12.20;99.10
9919;DHT22;4998;51.024;13.828;2022-11-02T02:47:58;12.20;99.10
9919;DHT22;4998;51.024;13.828;2022-11-02T02:50:29;12.10;99.00
9919;DHT22;4998;51.024;13.828;2022-11-02T02:52:58;12.10;98.90
9919;DHT22;4998;51.024;13.828;2022-11-02T02:55:31;12.10;98.90
9919;DHT22;4998;51.024;13.828;2022-11-02T02:58:01;12.00;98.90
9919;DHT22;4998;51.024;13.828;2022-11-02T03:00:30;12.00;98.90
9919;DHT22;4998;51.024;13.828;2022-11-02T03:02:59;12.00;98.90
9919;DHT22;4998;51.024;13.828;2022-11-02T03:05:30;12.00;98.80
9919;DHT22;4998;51.024;13.828;2022-11-02T03:08:00;12.00;98.90
9919;DHT22;4998;51.024;13.828;2022-11-02T03:10:32;11.90;98.90
9919;DHT22;4998;51.024;13.828;2022-11-02T03:13:09;11.90;98.90
9919;DHT22;4998;51.024;13.828;2022-11-02T03:15:43;11.90;99.00
9919;DHT22;4998;51.024;13.828;2022-11-02T03:18:17;11.90;99.00
9919;DHT22;4998;51.024;13.828;2022-11-02T03:20:55;11.90;99.00
9919;DHT22;4998;51.024;13.828;2022-11-02T03:23:28;11.90;99.10
9919;DHT22;4998;51.024;13.828;2022-11-02T03:26:01;11.80;99.40
9919;DHT22;4998;51.024;13.828;2022-11-02T03:28:43;11.80;99.20
9919;DHT22;4998;51.024;13.828;2022-11-02T03:31:26;11.60;99.10
9919;DHT22;4998;51.024;13.828;2022-11-02T03:33:59;11.80;99.20
9919;DHT22;4998;51.024;13.828;2022-11-02T03:36:32;11.80;99.20
9919;DHT22;4998;51.024;13.828;2022-11-02T03:39:05;11.80;99.20
9919;DHT22;4998;51.024;13.828;2022-11-02T03:41:34;11.80;99.20
9919;DHT22;4998;51.024;13.828;2022-11-02T03:44:05;11.70;99.10
9919;DHT22;4998;51.024;13.828;2022-11-02T03:46:36;11.80;99.20
9919;DHT22;4998;51.024;13.828;2022-11-02T03:49:06;11.80;99.10
9919;DHT22;4998;51.024;13.828;2022-11-02T03:51:38;11.70;99.10
9919;DHT22;4998;51.024;13.828;2022-11-02T03:54:11;11.70;99.20
9919;DHT22;4998;51.024;13.828;2022-11-02T03:56:42;11.70;99.20
9919;DHT22;4998;51.024;13.828;2022-11-02T03:59:10;11.70;99.30
9919;DHT22;4998;51.024;13.828;2022-11-02T04:01:41;11.70;99.20
9919;DHT22;4998;51.024;13.828;2022-11-02T04:04:09;11.70;99.30
9919;DHT22;4998;51.024;13.828;2022-11-02T04:06:37;11.60;99.20
9919;DHT22;4998;51.024;13.828;2022-11-02T04:09:05;11.60;99.20
9919;DHT22;4998;51.024;13.828;2022-11-02T04:11:32;11.60;99.10
9919;DHT22;4998;51.024;13.828;2022-11-02T04:14:16;11.60;99.20
9919;DHT22;4998;51.024;13.828;2022-11-02T04:17:02;11.60;99.10
9919;DHT22;4998;51.024;13.828;2022-11-02T04:19:47;11.60;99.10
9919;DHT22;4998;51.024;13.828;2022-11-02T04:22:14;11.60;99.00
9919;DHT22;4998;51.024;13.828;2022-11-02T04:24:58;11.50;98.90
9919;DHT22;4998;51.024;13.828;2022-11-02T04:27:43;11.50;99.00
9919;DHT22;4998;51.024;13.828;2022-11-02T04:30:11;11.50;99.00
9919;DHT22;4998;51.024;13.828;2022-11-02T04:32:40;11.50;99.00
9919;DHT22;4998;51.024;13.828;2022-11-02T04:35:25;11.50;99.10
9919;DHT22;4998;51.024;13.828;2022-11-02T04:37:52;11.50;99.00
9919;DHT22;4998;51.024;13.828;2022-11-02T04:40:38;11.40;99.00
9919;DHT22;4998;51.024;13.828;2022-11-02T04:43:05;11.40;98.90
9919;DHT22;4998;51.024;13.828;2022-11-02T04:45:32;11.40;99.00
9919;DHT22;4998;51.024;13.828;2022-11-02T04:48:02;11.40;99.00
9919;DHT22;4998;51.024;13.828;2022-11-02T04:50:29;11.40;99.10
9919;DHT22;4998;51.024;13.828;2022-11-02T04:52:56;11.30;99.00
9919;DHT22;4998;51.024;13.828;2022-11-02T04:55:24;11.40;99.10
9919;DHT22;4998;51.024;13.828;2022-11-02T04:57:51;11.30;99.10
9919;DHT22;4998;51.024;13.828;2022-11-02T05:00:20;11.30;99.10
9919;DHT22;4998;51.024;13.828;2022-11-02T05:02:48;11.30;99.20
9919;DHT22;4998;51.024;13.828;2022-11-02T05:05:17;11.30;99.10
9919;DHT22;4998;51.024;13.828;2022-11-02T05:07:44;11.30;99.20
9919;DHT22;4998;51.024;13.828;2022-11-02T05:10:11;11.30;99.10
9919;DHT22;4998;51.024;13.828;2022-11-02T05:12:38;11.30;99.10
9919;DHT22;4998;51.024;13.828;2022-11-02T05:15:06;11.30;99.10
9919;DHT22;4998;51.024;13.828;2022-11-02T05:17:33;11.30;99.10
9919;DHT22;4998;51.024;13.828;2022-11-02T05:20:00;11.20;99.00
9919;DHT22;4998;51.024;13.828;2022-11-02T05:22:29;11.20;99.00
9919;DHT22;4998;51.024;13.828;2022-11-02T05:24:56;11.20;99.00
9919;DHT22;4998;51.024;13.828;2022-11-02T05:27:23;11.20;99.00
9919;DHT22;4998;51.024;13.828;2022-11-02T05:29:50;11.20;99.00
9919;DHT22;4998;51.024;13.828;2022-11-02T05:32:17;11.20;99.00
9919;DHT22;4998;51.024;13.828;2022-11-02T05:34:44;11.20;99.00
9919;DHT22;4998;51.024;13.828;2022-11-02T05:37:10;11.10;99.00
9919;DHT22;4998;51.024;13.828;2022-11-02T05:39:39;11.10;99.20
9919;DHT22;4998;51.024;13.828;2022-11-02T05:42:05;11.10;99.10
9919;DHT22;4998;51.024;13.828;2022-11-02T05:44:32;11.10;99.20
9919;DHT22;4998;51.024;13.828;2022-11-02T05:46:59;11.10;99.20
9919;DHT22;4998;51.024;13.828;2022-11-02T05:49:26;11.10;99.30
9919;DHT22;4998;51.024;13.828;2022-11-02T05:51:53;11.10;99.30
9919;DHT22;4998;51.024;13.828;2022-11-02T05:54:20;11.10;99.30
9919;DHT22;4998;51.024;13.828;2022-11-02T05:56:48;11.10;99.30
9919;DHT22;4998;51.024;13.828;2022-11-02T05:59:15;11.10;99.30
9919;DHT22;4998;51.024;13.828;2022-11-02T06:01:42;11.10;99.20
9919;DHT22;4998;51.024;13.828;2022-11-02T06:04:09;11.10;99.20
9919;DHT22;4998;51.024;13.828;2022-11-02T06:06:36;11.10;99.20
9919;DHT22;4998;51.024;13.828;2022-11-02T06:09:03;11.10;99.10
9919;DHT22;4998;51.024;13.828;2022-11-02T06:11:30;11.10;99.20
9919;DHT22;4998;51.024;13.828;2022-11-02T06:13:58;11.10;99.10
9919;DHT22;4998;51.024;13.828;2022-11-02T06:16:25;11.10;99.10
9919;DHT22;4998;51.024;13.828;2022-11-02T06:18:52;11.10;99.10
9919;DHT22;4998;51.024;13.828;2022-11-02T06:21:19;11.10;99.20
9919;DHT22;4998;51.024;13.828;2022-11-02T06:23:46;11.00;99.10
9919;DHT22;4998;51.024;13.828;2022-11-02T06:26:13;11.10;99.20
9919;DHT22;4998;51.024;13.828;2022-11-02T06:28:40;11.00;99.30
9919;DHT22;4998;51.024;13.828;2022-11-02T06:31:09;11.10;99.40
9919;DHT22;4998;51.024;13.828;2022-11-02T06:33:36;11.10;99.40
9919;DHT22;4998;51.024;13.828;2022-11-02T06:36:03;11.10;99.60
9919;DHT22;4998;51.024;13.828;2022-11-02T06:38:30;11.10;99.70
9919;DHT22;4998;51.024;13.828;2022-11-02T06:40:59;11.10;99.80
9919;DHT22;4998;51.024;13.828;2022-11-02T06:43:28;11.10;99.90
9919;DHT22;4998;51.024;13.828;2022-11-02T06:45:56;11.20;99.90
9919;DHT22;4998;51.024;13.828;2022-11-02T06:48:26;11.20;99.90
9919;DHT22;4998;51.024;13.828;2022-11-02T06:50:53;11.30;99.90
9919;DHT22;4998;51.024;13.828;2022-11-02T06:53:20;11.30;99.90
9919;DHT22;4998;51.024;13.828;2022-11-02T06:55:50;11.40;99.90
9919;DHT22;4998;51.024;13.828;2022-11-02T06:58:18;11.50;99.90
9919;DHT22;4998;51.024;13.828;2022-11-02T07:00:45;11.60;99.90
9919;DHT22;4998;51.024;13.828;2022-11-02T07:03:11;11.70;99.90
9919;DHT22;4998;51.024;13.828;2022-11-02T07:05:40;11.80;99.90
9919;DHT22;4998;51.024;13.828;2022-11-02T07:08:07;11.90;99.90
9919;DHT22;4998;51.024;13.828;2022-11-02T07:10:34;12.00;99.90
9919;DHT22;4998;51.024;13.828;2022-11-02T07:13:01;12.10;99.90
9919;DHT22;4998;51.024;13.828;2022-11-02T07:15:28;12.10;99.90
9919;DHT22;4998;51.024;13.828;2022-11-02T07:17:55;12.20;99.90
9919;DHT22;4998;51.024;13.828;2022-11-02T07:20:21;12.30;99.90
9919;DHT22;4998;51.024;13.828;2022-11-02T07:22:54;12.40;99.90
9919;DHT22;4998;51.024;13.828;2022-11-02T07:25:22;12.40;99.90
9919;DHT22;4998;51.024;13.828;2022-11-02T07:27:49;12.50;99.90
9919;DHT22;4998;51.024;13.828;2022-11-02T07:30:16;12.50;99.90
9919;DHT22;4998;51.024;13.828;2022-11-02T07:32:44;12.50;99.90
9919;DHT22;4998;51.024;13.828;2022-11-02T07:35:13;12.60;99.90
9919;DHT22;4998;51.024;13.828;2022-11-02T07:37:40;12.60;99.90
9919;DHT22;4998;51.024;13.828;2022-11-02T07:40:10;12.70;99.90
9919;DHT22;4998;51.024;13.828;2022-11-02T07:42:43;12.70;99.90
9919;DHT22;4998;51.024;13.828;2022-11-02T07:45:11;12.80;99.90
9919;DHT22;4998;51.024;13.828;2022-11-02T07:47:41;12.80;99.90
9919;DHT22;4998;51.024;13.828;2022-11-02T07:50:09;12.80;99.90
9919;DHT22;4998;51.024;13.828;2022-11-02T07:52:43;12.90;99.90
9919;DHT22;4998;51.024;13.828;2022-11-02T07:55:12;12.90;99.90
9919;DHT22;4998;51.024;13.828;2022-11-02T07:57:39;13.00;99.90
9919;DHT22;4998;51.024;13.828;2022-11-02T08:00:07;13.00;99.90
9919;DHT22;4998;51.024;13.828;2022-11-02T08:02:34;13.10;99.90
9919;DHT22;4998;51.024;13.828;2022-11-02T08:05:01;13.20;99.90
9919;DHT22;4998;51.024;13.828;2022-11-02T08:07:28;13.20;99.90
9919;DHT22;4998;51.024;13.828;2022-11-02T08:09:55;13.30;99.90
9919;DHT22;4998;51.024;13.828;2022-11-02T08:12:23;13.30;99.90
9919;DHT22;4998;51.024;13.828;2022-11-02T08:14:50;13.40;99.90
9919;DHT22;4998;51.024;13.828;2022-11-02T08:17:17;13.50;99.90
9919;DHT22;4998;51.024;13.828;2022-11-02T08:19:44;13.60;99.90
9919;DHT22;4998;51.024;13.828;2022-11-02T08:22:11;13.60;99.90
9919;DHT22;4998;51.024;13.828;2022-11-02T08:24:38;13.70;99.90
9919;DHT22;4998;51.024;13.828;2022-11-02T08:27:04;13.70;99.90
9919;DHT22;4998;51.024;13.828;2022-11-02T08:29:33;13.80;99.90
9919;DHT22;4998;51.024;13.828;2022-11-02T08:32:01;13.90;99.90
9919;DHT22;4998;51.024;13.828;2022-11-02T08:34:28;14.00;99.90
9919;DHT22;4998;51.024;13.828;2022-11-02T08:36:55;14.00;99.90
9919;DHT22;4998;51.024;13.828;2022-11-02T08:39:22;14.10;99.90
9919;DHT22;4998;51.024;13.828;2022-11-02T08:41:48;14.20;99.90
9919;DHT22;4998;51.024;13.828;2022-11-02T08:44:15;14.20;99.90
9919;DHT22;4998;51.024;13.828;2022-11-02T08:46:43;14.30;99.90
9919;DHT22;4998;51.024;13.828;2022-11-02T08:49:10;14.40;99.90
9919;DHT22;4998;51.024;13.828;2022-11-02T08:51:37;14.50;99.90
9919;DHT22;4998;51.024;13.828;2022-11-02T08:54:04;14.50;99.90
9919;DHT22;4998;51.024;13.828;2022-11-02T08:56:31;14.60;99.90
9919;DHT22;4998;51.024;13.828;2022-11-02T08:58:58;14.70;99.90
9919;DHT22;4998;51.024;13.828;2022-11-02T09:01:24;14.80;99.90
9919;DHT22;4998;51.024;13.828;2022-11-02T09:03:53;14.90;99.90
9919;DHT22;4998;51.024;13.828;2022-11-02T09:06:20;15.00;99.90
9919;DHT22;4998;51.024;13.828;2022-11-02T09:08:46;15.10;99.90
9919;DHT22;4998;51.024;13.828;2022-11-02T09:11:13;15.20;99.90
9919;DHT22;4998;51.024;13.828;2022-11-02T09:13:41;15.40;99.90
9919;DHT22;4998;51.024;13.828;2022-11-02T09:16:07;15.50;99.90
9919;DHT22;4998;51.024;13.828;2022-11-02T09:18:35;15.70;99.90
9919;DHT22;4998;51.024;13.828;2022-11-02T09:21:04;15.80;99.90
9919;DHT22;4998;51.024;13.828;2022-11-02T09:23:31;15.90;99.50
9919;DHT22;4998;51.024;13.828;2022-11-02T09:25:58;16.10;99.30
9919;DHT22;4998;51.024;13.828;2022-11-02T09:28:25;16.20;99.10
9919;DHT22;4998;51.024;13.828;2022-11-02T09:30:52;16.40;98.80
9919;DHT22;4998;51.024;13.828;2022-11-02T09:33:19;16.50;98.60
9919;DHT22;4998;51.024;13.828;2022-11-02T09:35:47;16.70;98.20
9919;DHT22;4998;51.024;13.828;2022-11-02T09:38:16;16.80;97.90
9919;DHT22;4998;51.024;13.828;2022-11-02T09:40:47;16.90;97.70
9919;DHT22;4998;51.024;13.828;2022-11-02T09:43:19;17.00;97.40
9919;DHT22;4998;51.024;13.828;2022-11-02T09:45:54;17.20;97.20
9919;DHT22;4998;51.024;13.828;2022-11-02T09:48:26;17.30;96.50
9919;DHT22;4998;51.024;13.828;2022-11-02T09:50:58;17.40;96.40
9919;DHT22;4998;51.024;13.828;2022-11-02T09:53:33;17.50;96.20
9919;DHT22;4998;51.024;13.828;2022-11-02T09:56:04;17.60;95.90
9919;DHT22;4998;51.024;13.828;2022-11-02T09:58:35;17.80;95.70
9919;DHT22;4998;51.024;13.828;2022-11-02T10:01:12;17.80;95.30
9919;DHT22;4998;51.024;13.828;2022-11-02T10:03:47;17.90;94.90
9919;DHT22;4998;51.024;13.828;2022-11-02T10:06:19;18.00;94.20
9919;DHT22;4998;51.024;13.828;2022-11-02T10:08:55;18.10;94.00
9919;DHT22;4998;51.024;13.828;2022-11-02T10:11:33;18.10;93.50
9919;DHT22;4998;51.024;13.828;2022-11-02T10:14:07;18.20;93.30
9919;DHT22;4998;51.024;13.828;2022-11-02T10:16:39;18.10;93.20
9919;DHT22;4998;51.024;13.828;2022-11-02T10:19:12;18.20;92.70
9919;DHT22;4998;51.024;13.828;2022-11-02T10:21:45;18.20;92.60
9919;DHT22;4998;51.024;13.828;2022-11-02T10:24:22;18.20;92.40
9919;DHT22;4998;51.024;13.828;2022-11-02T10:26:52;18.20;92.20
9919;DHT22;4998;51.024;13.828;2022-11-02T10:29:28;18.20;92.30
9919;DHT22;4998;51.024;13.828;2022-11-02T10:31:55;18.20;91.80
9919;DHT22;4998;51.024;13.828;2022-11-02T10:34:24;18.20;91.90
9919;DHT22;4998;51.024;13.828;2022-11-02T10:37:03;18.20;91.80
9919;DHT22;4998;51.024;13.828;2022-11-02T10:39:43;18.20;91.60
9919;DHT22;4998;51.024;13.828;2022-11-02T10:42:50;18.20;91.50
9919;DHT22;4998;51.024;13.828;2022-11-02T10:45:44;18.20;91.50
9919;DHT22;4998;51.024;13.828;2022-11-02T10:48:21;18.20;91.80
9919;DHT22;4998;51.024;13.828;2022-11-02T10:50:58;18.30;91.80
9919;DHT22;4998;51.024;13.828;2022-11-02T10:53:33;18.30;91.70
9919;DHT22;4998;51.024;13.828;2022-11-02T10:56:09;18.40;91.60
9919;DHT22;4998;51.024;13.828;2022-11-02T10:58:43;18.50;91.70
9919;DHT22;4998;51.024;13.828;2022-11-02T11:01:11;18.50;91.10
9919;DHT22;4998;51.024;13.828;2022-11-02T11:03:53;18.60;91.00
9919;DHT22;4998;51.024;13.828;2022-11-02T11:06:21;18.60;90.50
9919;DHT22;4998;51.024;13.828;2022-11-02T11:08:48;18.60;90.50
9919;DHT22;4998;51.024;13.828;2022-11-02T11:11:21;18.70;89.80
9919;DHT22;4998;51.024;13.828;2022-11-02T11:13:57;18.70;88.80
9919;DHT22;4998;51.024;13.828;2022-11-02T11:16:34;18.70;87.70
9919;DHT22;4998;51.024;13.828;2022-11-02T11:19:02;18.70;87.20
9919;DHT22;4998;51.024;13.828;2022-11-02T11:21:40;18.80;87.90
9919;DHT22;4998;51.024;13.828;2022-11-02T11:24:20;18.80;87.30
9919;DHT22;4998;51.024;13.828;2022-11-02T11:27:20;18.80;87.40
9919;DHT22;4998;51.024;13.828;2022-11-02T11:29:52;18.80;87.10
9919;DHT22;4998;51.024;13.828;2022-11-02T11:32:22;18.90;86.50
9919;DHT22;4998;51.024;13.828;2022-11-02T11:34:58;18.90;86.00
9919;DHT22;4998;51.024;13.828;2022-11-02T11:37:25;18.90;86.50
9919;DHT22;4998;51.024;13.828;2022-11-02T11:39:56;19.00;85.30
9919;DHT22;4998;51.024;13.828;2022-11-02T11:42:27;19.00;84.20
9919;DHT22;4998;51.024;13.828;2022-11-02T11:44:58;19.00;82.30
9919;DHT22;4998;51.024;13.828;2022-11-02T11:47:28;19.00;81.30
9919;DHT22;4998;51.024;13.828;2022-11-02T11:49:57;19.00;81.40
9919;DHT22;4998;51.024;13.828;2022-11-02T11:52:27;19.00;82.10
9919;DHT22;4998;51.024;13.828;2022-11-02T11:54:56;19.00;80.90
9919;DHT22;4998;51.024;13.828;2022-11-02T11:57:28;18.90;79.90
9919;DHT22;4998;51.024;13.828;2022-11-02T11:59:57;19.00;79.40
9919;DHT22;4998;51.024;13.828;2022-11-02T12:02:28;19.00;79.80
9919;DHT22;4998;51.024;13.828;2022-11-02T12:05:00;18.90;79.70
9919;DHT22;4998;51.024;13.828;2022-11-02T12:10:48;18.90;79.40
9919;DHT22;4998;51.024;13.828;2022-11-02T12:16:19;18.80;79.30
9919;DHT22;4998;51.024;13.828;2022-11-02T12:19:03;18.80;77.70
9919;DHT22;4998;51.024;13.828;2022-11-02T12:21:49;18.80;78.90
9919;DHT22;4998;51.024;13.828;2022-11-02T12:27:33;18.80;77.00
9919;DHT22;4998;51.024;13.828;2022-11-02T12:30:11;18.80;77.00
9919;DHT22;4998;51.024;13.828;2022-11-02T12:33:17;18.80;76.20
9919;DHT22;4998;51.024;13.828;2022-11-02T12:35:54;18.90;76.10
9919;DHT22;4998;51.024;13.828;2022-11-02T12:38:38;18.90;75.30
9919;DHT22;4998;51.024;13.828;2022-11-02T12:41:07;18.90;75.00
9919;DHT22;4998;51.024;13.828;2022-11-02T12:43:38;18.90;74.80
9919;DHT22;4998;51.024;13.828;2022-11-02T12:49:05;18.90;74.20
9919;DHT22;4998;51.024;13.828;2022-11-02T12:51:38;18.90;74.30
9919;DHT22;4998;51.024;13.828;2022-11-02T12:54:09;18.90;74.60
9919;DHT22;4998;51.024;13.828;2022-11-02T12:56:43;18.90;74.10
9919;DHT22;4998;51.024;13.828;2022-11-02T12:59:15;18.90;73.90
9919;DHT22;4998;51.024;13.828;2022-11-02T13:01:47;18.90;74.00
9919;DHT22;4998;51.024;13.828;2022-11-02T13:04:19;18.90;74.50
9919;DHT22;4998;51.024;13.828;2022-11-02T13:06:49;18.90;74.30
9919;DHT22;4998;51.024;13.828;2022-11-02T13:09:21;18.90;74.00
9919;DHT22;4998;51.024;13.828;2022-11-02T13:11:52;18.90;73.50
9919;DHT22;4998;51.024;13.828;2022-11-02T13:14:21;19.00;72.70
9919;DHT22;4998;51.024;13.828;2022-11-02T13:16:56;19.00;72.10
9919;DHT22;4998;51.024;13.828;2022-11-02T13:19:32;19.00;71.70
9919;DHT22;4998;51.024;13.828;2022-11-02T13:22:02;19.00;71.50
9919;DHT22;4998;51.024;13.828;2022-11-02T13:24:33;19.00;71.30
9919;DHT22;4998;51.024;13.828;2022-11-02T13:27:05;18.90;70.40
9919;DHT22;4998;51.024;13.828;2022-11-02T13:29:39;18.90;70.30
9919;DHT22;4998;51.024;13.828;2022-11-02T13:32:17;18.90;70.60
9919;DHT22;4998;51.024;13.828;2022-11-02T13:34:48;18.80;70.20
9919;DHT22;4998;51.024;13.828;2022-11-02T13:37:20;18.80;70.30
9919;DHT22;4998;51.024;13.828;2022-11-02T13:39:50;18.80;69.70
9919;DHT22;4998;51.024;13.828;2022-11-02T13:45:49;18.70;69.30
9919;DHT22;4998;51.024;13.828;2022-11-02T13:48:48;18.70;68.40
9919;DHT22;4998;51.024;13.828;2022-11-02T13:51:24;18.70;69.00
9919;DHT22;4998;51.024;13.828;2022-11-02T13:53:53;18.60;68.20
9919;DHT22;4998;51.024;13.828;2022-11-02T13:56:22;18.60;68.40
9919;DHT22;4998;51.024;13.828;2022-11-02T13:58:55;18.60;68.80
9919;DHT22;4998;51.024;13.828;2022-11-02T14:01:23;18.60;68.50
9919;DHT22;4998;51.024;13.828;2022-11-02T14:03:54;18.60;69.30
9919;DHT22;4998;51.024;13.828;2022-11-02T14:06:23;18.60;68.80
9919;DHT22;4998;51.024;13.828;2022-11-02T14:08:53;18.60;69.00
9919;DHT22;4998;51.024;13.828;2022-11-02T14:11:31;18.60;68.60
9919;DHT22;4998;51.024;13.828;2022-11-02T14:14:14;18.60;68.40
9919;DHT22;4998;51.024;13.828;2022-11-02T14:16:43;18.60;68.60
9919;DHT22;4998;51.024;13.828;2022-11-02T14:19:30;18.60;68.60
9919;DHT22;4998;51.024;13.828;2022-11-02T14:22:12;18.60;68.40
9919;DHT22;4998;51.024;13.828;2022-11-02T14:25:15;18.60;68.10
9919;DHT22;4998;51.024;13.828;2022-11-02T14:27:42;18.60;68.20
9919;DHT22;4998;51.024;13.828;2022-11-02T14:30:43;18.60;67.60
9919;DHT22;4998;51.024;13.828;2022-11-02T14:33:20;18.60;67.40
9919;DHT22;4998;51.024;13.828;2022-11-02T14:35:56;18.60;66.90
9919;DHT22;4998;51.024;13.828;2022-11-02T14:38:55;18.60;66.80
9919;DHT22;4998;51.024;13.828;2022-11-02T14:42:03;18.60;66.40
9919;DHT22;4998;51.024;13.828;2022-11-02T14:45:04;18.60;66.20
9919;DHT22;4998;51.024;13.828;2022-11-02T14:47:36;18.60;65.90
9919;DHT22;4998;51.024;13.828;2022-11-02T14:50:07;18.60;65.50
9919;DHT22;4998;51.024;13.828;2022-11-02T14:52:41;18.50;65.30
9919;DHT22;4998;51.024;13.828;2022-11-02T14:55:22;18.50;64.80
9919;DHT22;4998;51.024;13.828;2022-11-02T14:57:52;18.50;64.70
9919;DHT22;4998;51.024;13.828;2022-11-02T15:00:23;18.50;64.70
9919;DHT22;4998;51.024;13.828;2022-11-02T15:02:50;18.40;64.40
9919;DHT22;4998;51.024;13.828;2022-11-02T15:05:27;18.40;64.40
9919;DHT22;4998;51.024;13.828;2022-11-02T15:07:59;18.40;63.90
9919;DHT22;4998;51.024;13.828;2022-11-02T15:10:44;18.40;63.80
9919;DHT22;4998;51.024;13.828;2022-11-02T15:13:33;18.30;63.60
9919;DHT22;4998;51.024;13.828;2022-11-02T15:16:38;18.30;63.90
9919;DHT22;4998;51.024;13.828;2022-11-02T15:19:34;18.30;63.80
9919;DHT22;4998;51.024;13.828;2022-11-02T15:22:31;18.30;63.30
9919;DHT22;4998;51.024;13.828;2022-11-02T15:25:05;18.20;63.10
9919;DHT22;4998;51.024;13.828;2022-11-02T15:27:38;18.20;63.10
9919;DHT22;4998;51.024;13.828;2022-11-02T15:30:10;18.10;63.50
9919;DHT22;4998;51.024;13.828;2022-11-02T15:32:42;18.10;63.50
9919;DHT22;4998;51.024;13.828;2022-11-02T15:35:15;18.00;62.90
9919;DHT22;4998;51.024;13.828;2022-11-02T15:37:43;18.00;62.80
9919;DHT22;4998;51.024;13.828;2022-11-02T15:40:18;18.00;63.10
9919;DHT22;4998;51.024;13.828;2022-11-02T15:42:51;17.90;62.60
9919;DHT22;4998;51.024;13.828;2022-11-02T15:45:30;17.90;62.80
9919;DHT22;4998;51.024;13.828;2022-11-02T15:48:11;17.80;62.80
9919;DHT22;4998;51.024;13.828;2022-11-02T15:50:46;17.80;62.80
9919;DHT22;4998;51.024;13.828;2022-11-02T15:53:29;17.70;62.90
9919;DHT22;4998;51.024;13.828;2022-11-02T15:59:10;17.60;62.70
9919;DHT22;4998;51.024;13.828;2022-11-02T16:01:43;17.50;62.90
9919;DHT22;4998;51.024;13.828;2022-11-02T16:04:18;17.50;63.20
9919;DHT22;4998;51.024;13.828;2022-11-02T16:06:46;17.40;62.90
9919;DHT22;4998;51.024;13.828;2022-11-02T16:09:30;17.30;63.20
9919;DHT22;4998;51.024;13.828;2022-11-02T16:12:06;17.30;63.20
9919;DHT22;4998;51.024;13.828;2022-11-02T16:14:35;17.20;63.20
9919;DHT22;4998;51.024;13.828;2022-11-02T16:17:02;17.10;63.50
9919;DHT22;4998;51.024;13.828;2022-11-02T16:19:29;17.10;63.70
9919;DHT22;4998;51.024;13.828;2022-11-02T16:21:56;17.00;63.80
9919;DHT22;4998;51.024;13.828;2022-11-02T16:24:23;16.90;64.00
9919;DHT22;4998;51.024;13.828;2022-11-02T16:26:50;16.90;64.30
9919;DHT22;4998;51.024;13.828;2022-11-02T16:29:26;16.80;64.30
9919;DHT22;4998;51.024;13.828;2022-11-02T16:31:55;16.80;64.50